sensor_id;sensor_type;location;lat;lon;timestamp;P1;durP1;ratioP1;P2;durP2;ratioP2
982;SDS011;480;48.124;11.578;2022-12-05T00:02:10;8.10;;;5.40;;
982;SDS011;480;48.124;11.578;2022-12-05T00:04:38;11.27;;;8.77;;
982;SDS011;480;48.124;11.578;2022-12-05T00:07:09;6.23;;;5.17;;
982;SDS011;480;48.124;11.578;2022-12-05T00:09:41;9.53;;;6.70;;
982;SDS011;480;48.124;11.578;2022-12-05T00:12:09;10.50;;;5.93;;
982;SDS011;480;48.124;11.578;2022-12-05T00:14:38;11.73;;;6.83;;
982;SDS011;480;48.124;11.578;2022-12-05T00:17:08;9.70;;;6.70;;
982;SDS011;480;48.124;11.578;2022-12-05T00:19:36;10.40;;;5.73;;
982;SDS011;480;48.124;11.578;2022-12-05T00:22:05;12.40;;;7.87;;
982;SDS011;480;48.124;11.578;2022-12-05T00:24:33;10.23;;;5.80;;
982;SDS011;480;48.124;11.578;2022-12-05T00:27:15;10.33;;;7.17;;
982;SDS011;480;48.124;11.578;2022-12-05T00:29:42;11.73;;;7.00;;
982;SDS011;480;48.124;11.578;2022-12-05T00:32:13;12.17;;;6.47;;
982;SDS011;480;48.124;11.578;2022-12-05T00:34:54;9.30;;;6.67;;
982;SDS011;480;48.124;11.578;2022-12-05T00:37:30;12.03;;;6.83;;
982;SDS011;480;48.124;11.578;2022-12-05T00:40:00;11.07;;;7.40;;
982;SDS011;480;48.124;11.578;2022-12-05T00:42:28;14.20;;;7.60;;
982;SDS011;480;48.124;11.578;2022-12-05T00:44:57;9.60;;;7.53;;
982;SDS011;480;48.124;11.578;2022-12-05T00:47:27;8.40;;;5.93;;
982;SDS011;480;48.124;11.578;2022-12-05T00:49:57;9.20;;;6.33;;
982;SDS011;480;48.124;11.578;2022-12-05T00:52:39;12.73;;;6.77;;
982;SDS011;480;48.124;11.578;2022-12-05T00:55:19;12.27;;;7.10;;
982;SDS011;480;48.124;11.578;2022-12-05T00:57:47;13.70;;;7.97;;
982;SDS011;480;48.124;11.578;2022-12-05T01:00:23;10.23;;;6.50;;
982;SDS011;480;48.124;11.578;2022-12-05T01:02:58;9.40;;;6.83;;
982;SDS011;480;48.124;11.578;2022-12-05T01:05:27;12.13;;;7.80;;
982;SDS011;480;48.124;11.578;2022-12-05T01:07:56;9.37;;;6.27;;
982;SDS011;480;48.124;11.578;2022-12-05T01:10:33;9.83;;;6.93;;
982;SDS011;480;48.124;11.578;2022-12-05T01:13:00;9.13;;;7.10;;
982;SDS011;480;48.124;11.578;2022-12-05T01:15:36;7.47;;;5.33;;
982;SDS011;480;48.124;11.578;2022-12-05T01:18:05;9.70;;;7.57;;
982;SDS011;480;48.124;11.578;2022-12-05T01:20:37;10.27;;;7.20;;
982;SDS011;480;48.124;11.578;2022-12-05T01:23:05;16.23;;;7.43;;
982;SDS011;480;48.124;11.578;2022-12-05T01:25:32;11.33;;;8.40;;
982;SDS011;480;48.124;11.578;2022-12-05T01:28:04;9.57;;;7.20;;
982;SDS011;480;48.124;11.578;2022-12-05T01:30:32;11.50;;;7.97;;
982;SDS011;480;48.124;11.578;2022-12-05T01:33:06;9.40;;;6.70;;
982;SDS011;480;48.124;11.578;2022-12-05T01:35:36;12.17;;;7.13;;
982;SDS011;480;48.124;11.578;2022-12-05T01:38:08;7.17;;;6.50;;
982;SDS011;480;48.124;11.578;2022-12-05T01:40:38;11.10;;;7.53;;
982;SDS011;480;48.124;11.578;2022-12-05T01:43:20;12.90;;;6.70;;
982;SDS011;480;48.124;11.578;2022-12-05T01:46:01;12.23;;;6.97;;
982;SDS011;480;48.124;11.578;2022-12-05T01:55:11;7.87;;;7.00;;
982;SDS011;480;48.124;11.578;2022-12-05T01:57:42;13.13;;;7.90;;
982;SDS011;480;48.124;11.578;2022-12-05T02:00:12;9.53;;;6.10;;
982;SDS011;480;48.124;11.578;2022-12-05T02:02:59;10.20;;;6.87;;
982;SDS011;480;48.124;11.578;2022-12-05T02:05:40;10.90;;;6.63;;
982;SDS011;480;48.124;11.578;2022-12-05T02:08:31;17.97;;;9.83;;
982;SDS011;480;48.124;11.578;2022-12-05T02:11:02;15.83;;;9.57;;
982;SDS011;480;48.124;11.578;2022-12-05T02:13:37;11.77;;;6.83;;
982;SDS011;480;48.124;11.578;2022-12-05T02:16:18;8.67;;;6.63;;
982;SDS011;480;48.124;11.578;2022-12-05T02:19:22;13.70;;;9.37;;
982;SDS011;480;48.124;11.578;2022-12-05T02:25:20;12.00;;;9.77;;
982;SDS011;480;48.124;11.578;2022-12-05T02:28:19;12.10;;;7.93;;
982;SDS011;480;48.124;11.578;2022-12-05T02:31:04;11.20;;;8.47;;
982;SDS011;480;48.124;11.578;2022-12-05T02:33:42;9.67;;;7.30;;
982;SDS011;480;48.124;11.578;2022-12-05T02:36:35;13.97;;;7.40;;
982;SDS011;480;48.124;11.578;2022-12-05T02:39:17;8.20;;;6.77;;
982;SDS011;480;48.124;11.578;2022-12-05T02:42:14;12.47;;;7.50;;
982;SDS011;480;48.124;11.578;2022-12-05T02:57:56;15.03;;;7.60;;
982;SDS011;480;48.124;11.578;2022-12-05T03:00:28;10.70;;;8.40;;
982;SDS011;480;48.124;11.578;2022-12-05T03:05:31;10.70;;;6.57;;
982;SDS011;480;48.124;11.578;2022-12-05T03:08:11;10.23;;;7.80;;
982;SDS011;480;48.124;11.578;2022-12-05T03:10:45;18.67;;;11.07;;
982;SDS011;480;48.124;11.578;2022-12-05T03:13:37;17.03;;;9.40;;
982;SDS011;480;48.124;11.578;2022-12-05T03:16:10;10.47;;;7.67;;
982;SDS011;480;48.124;11.578;2022-12-05T03:18:45;12.83;;;7.93;;
982;SDS011;480;48.124;11.578;2022-12-05T03:37:10;10.13;;;5.37;;
982;SDS011;480;48.124;11.578;2022-12-05T03:39:41;12.70;;;9.00;;
982;SDS011;480;48.124;11.578;2022-12-05T03:42:35;14.47;;;8.20;;
982;SDS011;480;48.124;11.578;2022-12-05T03:45:21;9.50;;;5.97;;
982;SDS011;480;48.124;11.578;2022-12-05T03:47:59;16.67;;;8.47;;
982;SDS011;480;48.124;11.578;2022-12-05T03:50:36;14.47;;;9.33;;
982;SDS011;480;48.124;11.578;2022-12-05T04:00:48;8.57;;;6.73;;
982;SDS011;480;48.124;11.578;2022-12-05T04:03:19;10.70;;;8.80;;
982;SDS011;480;48.124;11.578;2022-12-05T04:06:03;9.73;;;6.57;;
982;SDS011;480;48.124;11.578;2022-12-05T04:08:39;10.17;;;8.33;;
982;SDS011;480;48.124;11.578;2022-12-05T04:11:13;11.80;;;8.10;;
982;SDS011;480;48.124;11.578;2022-12-05T04:13:47;13.97;;;9.37;;
982;SDS011;480;48.124;11.578;2022-12-05T04:16:35;11.37;;;7.40;;
982;SDS011;480;48.124;11.578;2022-12-05T04:19:25;12.00;;;9.13;;
982;SDS011;480;48.124;11.578;2022-12-05T04:22:32;11.77;;;8.30;;
982;SDS011;480;48.124;11.578;2022-12-05T04:25:04;12.37;;;8.73;;
982;SDS011;480;48.124;11.578;2022-12-05T04:27:53;11.17;;;6.43;;
982;SDS011;480;48.124;11.578;2022-12-05T04:30:25;12.20;;;7.67;;
982;SDS011;480;48.124;11.578;2022-12-05T04:33:03;7.00;;;5.60;;
982;SDS011;480;48.124;11.578;2022-12-05T04:35:37;12.87;;;7.63;;
982;SDS011;480;48.124;11.578;2022-12-05T04:38:12;11.53;;;7.13;;
982;SDS011;480;48.124;11.578;2022-12-05T04:40:46;12.00;;;7.97;;
982;SDS011;480;48.124;11.578;2022-12-05T04:43:22;9.83;;;6.27;;
982;SDS011;480;48.124;11.578;2022-12-05T04:46:08;13.87;;;8.30;;
982;SDS011;480;48.124;11.578;2022-12-05T04:48:56;10.20;;;7.10;;
982;SDS011;480;48.124;11.578;2022-12-05T04:51:39;14.90;;;7.77;;
982;SDS011;480;48.124;11.578;2022-12-05T04:54:12;9.63;;;7.23;;
982;SDS011;480;48.124;11.578;2022-12-05T04:56:45;12.97;;;7.30;;
982;SDS011;480;48.124;11.578;2022-12-05T04:59:17;13.57;;;9.00;;
982;SDS011;480;48.124;11.578;2022-12-05T05:01:59;7.97;;;5.77;;
982;SDS011;480;48.124;11.578;2022-12-05T05:08:11;13.30;;;9.00;;
982;SDS011;480;48.124;11.578;2022-12-05T05:11:00;12.73;;;8.30;;
982;SDS011;480;48.124;11.578;2022-12-05T05:14:16;13.23;;;7.10;;
982;SDS011;480;48.124;11.578;2022-12-05T05:16:50;12.17;;;6.63;;
982;SDS011;480;48.124;11.578;2022-12-05T06:22:16;10.73;;;6.53;;
982;SDS011;480;48.124;11.578;2022-12-05T06:32:51;14.50;;;8.13;;
982;SDS011;480;48.124;11.578;2022-12-05T07:24:27;10.10;;;6.97;;
982;SDS011;480;48.124;11.578;2022-12-05T07:27:20;9.90;;;6.70;;
982;SDS011;480;48.124;11.578;2022-12-05T07:30:03;11.10;;;6.60;;
982;SDS011;480;48.124;11.578;2022-12-05T07:32:47;10.50;;;7.23;;
982;SDS011;480;48.124;11.578;2022-12-05T07:35:23;11.57;;;7.07;;
982;SDS011;480;48.124;11.578;2022-12-05T07:41:22;10.70;;;6.80;;
982;SDS011;480;48.124;11.578;2022-12-05T07:44:15;11.10;;;7.80;;
982;SDS011;480;48.124;11.578;2022-12-05T07:46:46;9.47;;;6.60;;
982;SDS011;480;48.124;11.578;2022-12-05T07:49:15;8.20;;;6.80;;
982;SDS011;480;48.124;11.578;2022-12-05T07:51:46;13.20;;;7.47;;
982;SDS011;480;48.124;11.578;2022-12-05T07:59:37;10.10;;;7.50;;
982;SDS011;480;48.124;11.578;2022-12-05T08:02:07;9.23;;;6.97;;
982;SDS011;480;48.124;11.578;2022-12-05T08:04:35;8.90;;;6.27;;
982;SDS011;480;48.124;11.578;2022-12-05T08:07:02;10.10;;;6.33;;
982;SDS011;480;48.124;11.578;2022-12-05T08:09:30;11.20;;;7.27;;
982;SDS011;480;48.124;11.578;2022-12-05T08:11:58;11.97;;;7.53;;
982;SDS011;480;48.124;11.578;2022-12-05T08:14:28;8.53;;;5.30;;
982;SDS011;480;48.124;11.578;2022-12-05T08:16:57;8.30;;;6.63;;
982;SDS011;480;48.124;11.578;2022-12-05T08:19:25;14.83;;;8.60;;
982;SDS011;480;48.124;11.578;2022-12-05T08:21:52;9.60;;;7.57;;
982;SDS011;480;48.124;11.578;2022-12-05T08:24:20;9.50;;;8.20;;
982;SDS011;480;48.124;11.578;2022-12-05T08:26:50;7.70;;;6.90;;
982;SDS011;480;48.124;11.578;2022-12-05T08:29:19;9.83;;;7.90;;
982;SDS011;480;48.124;11.578;2022-12-05T08:31:48;7.53;;;5.57;;
982;SDS011;480;48.124;11.578;2022-12-05T08:34:18;7.87;;;7.00;;
982;SDS011;480;48.124;11.578;2022-12-05T08:36:53;8.70;;;6.27;;
982;SDS011;480;48.124;11.578;2022-12-05T08:39:23;12.07;;;6.20;;
982;SDS011;480;48.124;11.578;2022-12-05T08:41:52;9.93;;;6.50;;
982;SDS011;480;48.124;11.578;2022-12-05T08:44:21;13.80;;;9.23;;
982;SDS011;480;48.124;11.578;2022-12-05T08:46:58;10.47;;;6.70;;
982;SDS011;480;48.124;11.578;2022-12-05T08:49:29;10.20;;;6.00;;
982;SDS011;480;48.124;11.578;2022-12-05T08:52:03;7.60;;;6.40;;
982;SDS011;480;48.124;11.578;2022-12-05T08:54:39;10.30;;;7.90;;
982;SDS011;480;48.124;11.578;2022-12-05T08:57:15;11.30;;;7.00;;
982;SDS011;480;48.124;11.578;2022-12-05T08:59:43;8.57;;;6.27;;
982;SDS011;480;48.124;11.578;2022-12-05T09:02:14;8.10;;;5.53;;
982;SDS011;480;48.124;11.578;2022-12-05T09:04:43;7.90;;;6.50;;
982;SDS011;480;48.124;11.578;2022-12-05T09:07:15;10.40;;;6.70;;
982;SDS011;480;48.124;11.578;2022-12-05T09:09:53;9.77;;;7.30;;
982;SDS011;480;48.124;11.578;2022-12-05T09:12:25;9.23;;;6.77;;
982;SDS011;480;48.124;11.578;2022-12-05T09:14:53;10.87;;;7.83;;
982;SDS011;480;48.124;11.578;2022-12-05T09:17:20;6.90;;;6.13;;
982;SDS011;480;48.124;11.578;2022-12-05T09:19:52;7.37;;;5.83;;
982;SDS011;480;48.124;11.578;2022-12-05T09:22:19;7.73;;;6.70;;
982;SDS011;480;48.124;11.578;2022-12-05T09:24:49;11.07;;;8.60;;
982;SDS011;480;48.124;11.578;2022-12-05T09:27:17;8.73;;;7.00;;
982;SDS011;480;48.124;11.578;2022-12-05T09:29:50;10.17;;;7.23;;
982;SDS011;480;48.124;11.578;2022-12-05T09:32:19;8.33;;;6.13;;
982;SDS011;480;48.124;11.578;2022-12-05T09:37:51;7.43;;;6.17;;
982;SDS011;480;48.124;11.578;2022-12-05T09:40:22;14.20;;;5.43;;
982;SDS011;480;48.124;11.578;2022-12-05T09:42:53;6.50;;;5.87;;
982;SDS011;480;48.124;11.578;2022-12-05T09:45:32;8.20;;;6.33;;
982;SDS011;480;48.124;11.578;2022-12-05T09:48:48;7.40;;;5.73;;
982;SDS011;480;48.124;11.578;2022-12-05T09:51:24;10.63;;;5.77;;
982;SDS011;480;48.124;11.578;2022-12-05T09:54:01;11.83;;;6.97;;
982;SDS011;480;48.124;11.578;2022-12-05T09:56:36;10.60;;;6.23;;
982;SDS011;480;48.124;11.578;2022-12-05T09:59:08;10.90;;;5.67;;
982;SDS011;480;48.124;11.578;2022-12-05T10:01:41;7.53;;;6.13;;
982;SDS011;480;48.124;11.578;2022-12-05T10:04:39;8.43;;;6.00;;
982;SDS011;480;48.124;11.578;2022-12-05T10:07:49;10.10;;;6.90;;
982;SDS011;480;48.124;11.578;2022-12-05T10:10:24;9.03;;;6.20;;
982;SDS011;480;48.124;11.578;2022-12-05T10:13:22;7.90;;;5.70;;
982;SDS011;480;48.124;11.578;2022-12-05T10:16:17;8.60;;;7.70;;
982;SDS011;480;48.124;11.578;2022-12-05T10:19:10;6.93;;;6.23;;
982;SDS011;480;48.124;11.578;2022-12-05T10:21:46;10.70;;;5.90;;
982;SDS011;480;48.124;11.578;2022-12-05T10:24:25;10.37;;;7.63;;
982;SDS011;480;48.124;11.578;2022-12-05T10:27:01;9.20;;;6.10;;
982;SDS011;480;48.124;11.578;2022-12-05T10:29:43;9.03;;;6.73;;
982;SDS011;480;48.124;11.578;2022-12-05T10:32:17;8.37;;;6.43;;
982;SDS011;480;48.124;11.578;2022-12-05T10:35:00;10.17;;;6.60;;
982;SDS011;480;48.124;11.578;2022-12-05T10:37:41;6.70;;;5.90;;
982;SDS011;480;48.124;11.578;2022-12-05T10:40:13;8.20;;;5.33;;
982;SDS011;480;48.124;11.578;2022-12-05T10:42:41;10.20;;;7.17;;
982;SDS011;480;48.124;11.578;2022-12-05T10:45:13;9.60;;;5.63;;
982;SDS011;480;48.124;11.578;2022-12-05T10:47:43;8.50;;;7.10;;
982;SDS011;480;48.124;11.578;2022-12-05T10:50:21;10.10;;;7.50;;
982;SDS011;480;48.124;11.578;2022-12-05T10:52:50;7.60;;;5.53;;
982;SDS011;480;48.124;11.578;2022-12-05T10:55:20;9.33;;;6.40;;
982;SDS011;480;48.124;11.578;2022-12-05T10:57:49;11.77;;;8.17;;
982;SDS011;480;48.124;11.578;2022-12-05T11:00:19;10.70;;;7.40;;
982;SDS011;480;48.124;11.578;2022-12-05T11:02:49;8.80;;;6.50;;
982;SDS011;480;48.124;11.578;2022-12-05T11:05:26;8.53;;;6.07;;
982;SDS011;480;48.124;11.578;2022-12-05T11:07:54;10.80;;;8.40;;
982;SDS011;480;48.124;11.578;2022-12-05T11:10:26;9.17;;;5.87;;
982;SDS011;480;48.124;11.578;2022-12-05T11:13:00;11.27;;;7.27;;
982;SDS011;480;48.124;11.578;2022-12-05T11:15:43;7.33;;;6.10;;
982;SDS011;480;48.124;11.578;2022-12-05T11:18:21;11.70;;;9.23;;
982;SDS011;480;48.124;11.578;2022-12-05T11:20:54;12.10;;;7.60;;
982;SDS011;480;48.124;11.578;2022-12-05T11:23:22;12.07;;;6.60;;
982;SDS011;480;48.124;11.578;2022-12-05T11:25:54;7.80;;;7.00;;
982;SDS011;480;48.124;11.578;2022-12-05T11:28:23;8.57;;;6.47;;
982;SDS011;480;48.124;11.578;2022-12-05T11:30:59;11.60;;;8.00;;
982;SDS011;480;48.124;11.578;2022-12-05T11:33:28;9.90;;;6.27;;
982;SDS011;480;48.124;11.578;2022-12-05T11:36:02;9.30;;;8.33;;
982;SDS011;480;48.124;11.578;2022-12-05T11:38:35;8.90;;;6.10;;
982;SDS011;480;48.124;11.578;2022-12-05T11:41:07;8.40;;;6.70;;
982;SDS011;480;48.124;11.578;2022-12-05T11:43:47;10.70;;;6.47;;
982;SDS011;480;48.124;11.578;2022-12-05T11:46:34;10.03;;;6.80;;
982;SDS011;480;48.124;11.578;2022-12-05T11:49:15;12.07;;;7.83;;
982;SDS011;480;48.124;11.578;2022-12-05T11:51:53;8.90;;;6.03;;
982;SDS011;480;48.124;11.578;2022-12-05T11:54:44;9.67;;;5.40;;
982;SDS011;480;48.124;11.578;2022-12-05T11:57:26;7.90;;;5.47;;
982;SDS011;480;48.124;11.578;2022-12-05T12:00:04;7.40;;;5.97;;
982;SDS011;480;48.124;11.578;2022-12-05T12:02:42;7.77;;;7.00;;
982;SDS011;480;48.124;11.578;2022-12-05T12:05:28;10.17;;;7.13;;
982;SDS011;480;48.124;11.578;2022-12-05T12:08:03;7.70;;;6.57;;
982;SDS011;480;48.124;11.578;2022-12-05T12:10:43;7.40;;;6.10;;
982;SDS011;480;48.124;11.578;2022-12-05T12:13:23;7.20;;;6.47;;
982;SDS011;480;48.124;11.578;2022-12-05T12:16:00;8.77;;;6.50;;
982;SDS011;480;48.124;11.578;2022-12-05T12:18:43;9.40;;;6.07;;
982;SDS011;480;48.124;11.578;2022-12-05T12:21:26;6.90;;;6.20;;
982;SDS011;480;48.124;11.578;2022-12-05T12:24:03;8.03;;;7.27;;
982;SDS011;480;48.124;11.578;2022-12-05T12:26:42;8.47;;;6.20;;
982;SDS011;480;48.124;11.578;2022-12-05T12:29:24;7.17;;;6.10;;
982;SDS011;480;48.124;11.578;2022-12-05T12:32:10;6.43;;;5.70;;
982;SDS011;480;48.124;11.578;2022-12-05T12:34:51;5.63;;;4.70;;
982;SDS011;480;48.124;11.578;2022-12-05T12:37:45;5.47;;;4.20;;
982;SDS011;480;48.124;11.578;2022-12-05T12:40:24;8.00;;;5.67;;
982;SDS011;480;48.124;11.578;2022-12-05T12:43:03;9.27;;;4.80;;
982;SDS011;480;48.124;11.578;2022-12-05T12:45:47;7.30;;;5.80;;
982;SDS011;480;48.124;11.578;2022-12-05T12:48:34;5.60;;;4.90;;
982;SDS011;480;48.124;11.578;2022-12-05T12:51:12;5.80;;;4.27;;
982;SDS011;480;48.124;11.578;2022-12-05T12:56:41;6.10;;;4.60;;
982;SDS011;480;48.124;11.578;2022-12-05T12:59:25;6.47;;;4.60;;
982;SDS011;480;48.124;11.578;2022-12-05T13:02:12;7.20;;;4.57;;
982;SDS011;480;48.124;11.578;2022-12-05T13:04:47;4.93;;;4.33;;
982;SDS011;480;48.124;11.578;2022-12-05T13:07:19;4.30;;;3.90;;
982;SDS011;480;48.124;11.578;2022-12-05T13:09:52;5.27;;;4.73;;
982;SDS011;480;48.124;11.578;2022-12-05T13:12:23;6.10;;;4.70;;
982;SDS011;480;48.124;11.578;2022-12-05T13:14:54;4.40;;;3.87;;
982;SDS011;480;48.124;11.578;2022-12-05T13:17:26;6.30;;;4.20;;
982;SDS011;480;48.124;11.578;2022-12-05T13:19:57;4.70;;;3.30;;
982;SDS011;480;48.124;11.578;2022-12-05T13:22:26;5.73;;;4.00;;
982;SDS011;480;48.124;11.578;2022-12-05T13:24:54;3.50;;;3.20;;
982;SDS011;480;48.124;11.578;2022-12-05T13:27:22;5.03;;;2.80;;
982;SDS011;480;48.124;11.578;2022-12-05T13:29:53;4.77;;;3.90;;
982;SDS011;480;48.124;11.578;2022-12-05T13:32:28;3.83;;;3.43;;
982;SDS011;480;48.124;11.578;2022-12-05T13:34:58;3.20;;;2.90;;
982;SDS011;480;48.124;11.578;2022-12-05T13:37:28;3.40;;;3.17;;
982;SDS011;480;48.124;11.578;2022-12-05T13:40:21;2.10;;;2.00;;
982;SDS011;480;48.124;11.578;2022-12-05T13:43:09;2.80;;;2.60;;
982;SDS011;480;48.124;11.578;2022-12-05T13:45:37;3.90;;;2.67;;
982;SDS011;480;48.124;11.578;2022-12-05T13:48:11;4.07;;;2.57;;
982;SDS011;480;48.124;11.578;2022-12-05T13:50:46;2.40;;;1.97;;
982;SDS011;480;48.124;11.578;2022-12-05T13:53:27;5.80;;;2.93;;
982;SDS011;480;48.124;11.578;2022-12-05T13:55:59;3.10;;;2.73;;
982;SDS011;480;48.124;11.578;2022-12-05T13:58:40;3.90;;;3.60;;
982;SDS011;480;48.124;11.578;2022-12-05T14:04:22;4.43;;;2.80;;
982;SDS011;480;48.124;11.578;2022-12-05T14:07:07;3.00;;;2.70;;
982;SDS011;480;48.124;11.578;2022-12-05T14:09:47;3.57;;;3.07;;
982;SDS011;480;48.124;11.578;2022-12-05T14:12:28;3.87;;;2.80;;
982;SDS011;480;48.124;11.578;2022-12-05T14:15:22;2.93;;;2.40;;
982;SDS011;480;48.124;11.578;2022-12-05T14:17:55;3.10;;;2.77;;
982;SDS011;480;48.124;11.578;2022-12-05T14:20:30;3.43;;;3.10;;
982;SDS011;480;48.124;11.578;2022-12-05T14:23:14;4.27;;;3.17;;
982;SDS011;480;48.124;11.578;2022-12-05T14:26:04;6.93;;;2.70;;
982;SDS011;480;48.124;11.578;2022-12-05T14:28:46;3.73;;;2.60;;
982;SDS011;480;48.124;11.578;2022-12-05T14:31:26;3.50;;;3.07;;
982;SDS011;480;48.124;11.578;2022-12-05T14:34:20;4.77;;;3.20;;
982;SDS011;480;48.124;11.578;2022-12-05T14:36:58;6.20;;;3.73;;
982;SDS011;480;48.124;11.578;2022-12-05T14:39:32;2.93;;;2.73;;
982;SDS011;480;48.124;11.578;2022-12-05T14:42:06;3.33;;;2.73;;
982;SDS011;480;48.124;11.578;2022-12-05T14:44:50;2.63;;;2.40;;
982;SDS011;480;48.124;11.578;2022-12-05T14:47:20;4.87;;;4.40;;
982;SDS011;480;48.124;11.578;2022-12-05T14:49:52;5.27;;;3.40;;
982;SDS011;480;48.124;11.578;2022-12-05T14:52:27;4.93;;;3.27;;
982;SDS011;480;48.124;11.578;2022-12-05T14:55:03;4.87;;;3.20;;
982;SDS011;480;48.124;11.578;2022-12-05T14:57:37;3.70;;;2.70;;
982;SDS011;480;48.124;11.578;2022-12-05T15:00:16;4.47;;;3.00;;
982;SDS011;480;48.124;11.578;2022-12-05T15:02:47;3.83;;;3.53;;
982;SDS011;480;48.124;11.578;2022-12-05T15:05:21;5.20;;;4.40;;
982;SDS011;480;48.124;11.578;2022-12-05T15:07:53;3.70;;;3.40;;
982;SDS011;480;48.124;11.578;2022-12-05T15:10:22;2.73;;;2.53;;
982;SDS011;480;48.124;11.578;2022-12-05T15:12:52;7.43;;;4.80;;
982;SDS011;480;48.124;11.578;2022-12-05T15:15:24;7.87;;;4.00;;
982;SDS011;480;48.124;11.578;2022-12-05T15:18:02;3.10;;;2.70;;
982;SDS011;480;48.124;11.578;2022-12-05T15:20:41;2.97;;;2.17;;
982;SDS011;480;48.124;11.578;2022-12-05T15:26:21;3.50;;;3.13;;
982;SDS011;480;48.124;11.578;2022-12-05T15:28:58;4.10;;;2.47;;
982;SDS011;480;48.124;11.578;2022-12-05T15:31:28;3.63;;;3.07;;
982;SDS011;480;48.124;11.578;2022-12-05T15:33:58;3.03;;;2.77;;
982;SDS011;480;48.124;11.578;2022-12-05T15:36:29;3.63;;;3.13;;
982;SDS011;480;48.124;11.578;2022-12-05T15:39:15;6.10;;;3.50;;
982;SDS011;480;48.124;11.578;2022-12-05T15:41:48;6.13;;;4.27;;
982;SDS011;480;48.124;11.578;2022-12-05T15:44:16;3.00;;;2.67;;
982;SDS011;480;48.124;11.578;2022-12-05T15:46:44;4.77;;;3.13;;
982;SDS011;480;48.124;11.578;2022-12-05T15:49:19;3.70;;;3.20;;
982;SDS011;480;48.124;11.578;2022-12-05T15:51:48;3.33;;;2.97;;
982;SDS011;480;48.124;11.578;2022-12-05T15:54:21;3.20;;;2.60;;
982;SDS011;480;48.124;11.578;2022-12-05T15:56:53;3.10;;;2.90;;
982;SDS011;480;48.124;11.578;2022-12-05T15:59:26;2.70;;;2.50;;
982;SDS011;480;48.124;11.578;2022-12-05T16:01:58;4.10;;;3.70;;
982;SDS011;480;48.124;11.578;2022-12-05T16:04:30;3.30;;;3.00;;
982;SDS011;480;48.124;11.578;2022-12-05T16:07:04;3.57;;;3.27;;
982;SDS011;480;48.124;11.578;2022-12-05T16:09:37;7.13;;;3.60;;
982;SDS011;480;48.124;11.578;2022-12-05T16:12:14;4.50;;;3.50;;
982;SDS011;480;48.124;11.578;2022-12-05T16:14:49;5.77;;;4.57;;
982;SDS011;480;48.124;11.578;2022-12-05T16:17:20;4.03;;;3.63;;
982;SDS011;480;48.124;11.578;2022-12-05T16:19:47;4.60;;;3.67;;
982;SDS011;480;48.124;11.578;2022-12-05T16:22:18;4.10;;;3.70;;
982;SDS011;480;48.124;11.578;2022-12-05T16:24:54;4.53;;;3.03;;
982;SDS011;480;48.124;11.578;2022-12-05T16:27:25;3.50;;;3.13;;
982;SDS011;480;48.124;11.578;2022-12-05T16:32:42;6.50;;;4.03;;
982;SDS011;480;48.124;11.578;2022-12-05T16:35:27;4.37;;;3.97;;
982;SDS011;480;48.124;11.578;2022-12-05T16:38:06;4.27;;;3.87;;
982;SDS011;480;48.124;11.578;2022-12-05T16:40:50;3.37;;;3.17;;
982;SDS011;480;48.124;11.578;2022-12-05T16:43:26;4.63;;;3.10;;
982;SDS011;480;48.124;11.578;2022-12-05T16:46:29;4.10;;;3.30;;
982;SDS011;480;48.124;11.578;2022-12-05T16:52:01;2.53;;;2.10;;
982;SDS011;480;48.124;11.578;2022-12-05T16:54:38;2.37;;;2.27;;
982;SDS011;480;48.124;11.578;2022-12-05T16:57:09;2.30;;;2.10;;
982;SDS011;480;48.124;11.578;2022-12-05T16:59:38;2.77;;;2.43;;
982;SDS011;480;48.124;11.578;2022-12-05T17:02:09;4.33;;;2.93;;
982;SDS011;480;48.124;11.578;2022-12-05T17:04:38;4.43;;;2.80;;
982;SDS011;480;48.124;11.578;2022-12-05T17:07:06;3.33;;;3.03;;
982;SDS011;480;48.124;11.578;2022-12-05T17:09:33;2.90;;;2.30;;
982;SDS011;480;48.124;11.578;2022-12-05T17:12:00;2.20;;;2.00;;
982;SDS011;480;48.124;11.578;2022-12-05T17:14:32;2.53;;;2.40;;
982;SDS011;480;48.124;11.578;2022-12-05T17:16:59;4.50;;;3.63;;
982;SDS011;480;48.124;11.578;2022-12-05T17:19:26;3.10;;;2.57;;
982;SDS011;480;48.124;11.578;2022-12-05T17:21:53;3.10;;;2.50;;
982;SDS011;480;48.124;11.578;2022-12-05T17:24:21;5.13;;;4.20;;
982;SDS011;480;48.124;11.578;2022-12-05T17:26:50;2.33;;;2.23;;
982;SDS011;480;48.124;11.578;2022-12-05T17:29:17;2.40;;;2.20;;
982;SDS011;480;48.124;11.578;2022-12-05T17:31:45;2.20;;;1.67;;
982;SDS011;480;48.124;11.578;2022-12-05T17:34:14;2.77;;;1.77;;
982;SDS011;480;48.124;11.578;2022-12-05T17:36:43;1.90;;;1.80;;
982;SDS011;480;48.124;11.578;2022-12-05T17:39:10;3.00;;;2.40;;
982;SDS011;480;48.124;11.578;2022-12-05T17:41:37;2.07;;;1.87;;
982;SDS011;480;48.124;11.578;2022-12-05T17:44:05;2.23;;;2.07;;
982;SDS011;480;48.124;11.578;2022-12-05T17:46:32;1.97;;;1.87;;
982;SDS011;480;48.124;11.578;2022-12-05T17:49:01;2.60;;;2.40;;
982;SDS011;480;48.124;11.578;2022-12-05T17:51:28;2.27;;;2.07;;
982;SDS011;480;48.124;11.578;2022-12-05T17:53:55;1.80;;;1.70;;
982;SDS011;480;48.124;11.578;2022-12-05T17:56:22;6.20;;;2.70;;
982;SDS011;480;48.124;11.578;2022-12-05T17:58:49;2.57;;;2.37;;
982;SDS011;480;48.124;11.578;2022-12-05T18:01:17;4.30;;;2.53;;
982;SDS011;480;48.124;11.578;2022-12-05T18:03:48;2.87;;;2.03;;
982;SDS011;480;48.124;11.578;2022-12-05T18:06:16;2.00;;;1.70;;
982;SDS011;480;48.124;11.578;2022-12-05T18:08:43;3.97;;;3.00;;
982;SDS011;480;48.124;11.578;2022-12-05T18:11:11;3.37;;;2.67;;
982;SDS011;480;48.124;11.578;2022-12-05T18:13:39;3.07;;;2.73;;
982;SDS011;480;48.124;11.578;2022-12-05T18:16:07;4.50;;;3.23;;
982;SDS011;480;48.124;11.578;2022-12-05T18:18:34;3.10;;;2.90;;
982;SDS011;480;48.124;11.578;2022-12-05T18:21:05;3.17;;;2.63;;
982;SDS011;480;48.124;11.578;2022-12-05T18:23:35;2.63;;;2.43;;
982;SDS011;480;48.124;11.578;2022-12-05T18:26:03;3.70;;;3.40;;
982;SDS011;480;48.124;11.578;2022-12-05T18:28:32;2.67;;;2.47;;
982;SDS011;480;48.124;11.578;2022-12-05T18:31:04;2.17;;;1.90;;
982;SDS011;480;48.124;11.578;2022-12-05T18:33:32;3.93;;;2.60;;
982;SDS011;480;48.124;11.578;2022-12-05T18:36:03;3.80;;;3.20;;
982;SDS011;480;48.124;11.578;2022-12-05T18:38:31;2.60;;;2.30;;
982;SDS011;480;48.124;11.578;2022-12-05T18:41:00;3.90;;;2.50;;
982;SDS011;480;48.124;11.578;2022-12-05T18:43:28;3.63;;;2.70;;
982;SDS011;480;48.124;11.578;2022-12-05T18:45:56;5.53;;;3.57;;
982;SDS011;480;48.124;11.578;2022-12-05T18:48:24;3.47;;;3.17;;
982;SDS011;480;48.124;11.578;2022-12-05T18:50:52;3.37;;;2.70;;
982;SDS011;480;48.124;11.578;2022-12-05T18:53:19;2.50;;;2.30;;
982;SDS011;480;48.124;11.578;2022-12-05T18:55:46;2.93;;;2.10;;
982;SDS011;480;48.124;11.578;2022-12-05T18:58:15;4.00;;;2.80;;
982;SDS011;480;48.124;11.578;2022-12-05T19:00:42;3.10;;;2.80;;
982;SDS011;480;48.124;11.578;2022-12-05T19:03:09;3.33;;;2.80;;
982;SDS011;480;48.124;11.578;2022-12-05T19:05:36;2.83;;;2.60;;
982;SDS011;480;48.124;11.578;2022-12-05T19:08:04;2.57;;;2.03;;
982;SDS011;480;48.124;11.578;2022-12-05T19:10:31;2.80;;;2.60;;
982;SDS011;480;48.124;11.578;2022-12-05T19:13:01;2.30;;;1.90;;
982;SDS011;480;48.124;11.578;2022-12-05T19:15:29;2.00;;;1.90;;
982;SDS011;480;48.124;11.578;2022-12-05T19:17:56;2.20;;;2.10;;
982;SDS011;480;48.124;11.578;2022-12-05T19:20:23;2.23;;;1.70;;
982;SDS011;480;48.124;11.578;2022-12-05T19:22:50;3.67;;;2.90;;
982;SDS011;480;48.124;11.578;2022-12-05T19:25:17;3.70;;;2.50;;
982;SDS011;480;48.124;11.578;2022-12-05T19:27:44;2.33;;;1.80;;
982;SDS011;480;48.124;11.578;2022-12-05T19:30:12;3.10;;;3.00;;
982;SDS011;480;48.124;11.578;2022-12-05T19:32:41;3.23;;;2.40;;